Weather at Ewarton Airstrip

Public forecast

Using degrees Celsius for public forecast. Weather courtesy of forecast.io.

Closest aviation weather report (METAR) to Ewarton Airstrip

Closest report is Norman Manley International Airport, 21.5 nm (39.8 km) SE. Retrieved 2021/06/12 11:00 UTC (6 minutes ago):

MKJP 121100Z 33005KT 9999 FEW020 FEW022CB 27/22 Q1013

Closest aviation forecast (TAF) to Ewarton Airstrip

Closest forecast is Norman Manley International Airport, 21.5 nm (39.8 km) SE. Retrieved 2021/06/12 06:19 UTC (5 hours ago):

TAF MKJP 120515Z 1206/1306 36008KT 9999 FEW020 FEW022CB PROB30 TEMPO 1206/1213 TSRA BKN018 SCT020CB BECMG 1214/1216 14018KT TEMPO 1217/1224 5000 TSRA BKN018 SCT020CB BECMG 1301/1303 36008KT FEW022